createdAt,value
2023-03-04T00:02:10.696Z,101347.28
2023-03-04T00:04:37.141Z,101342.38
2023-03-04T00:07:03.569Z,101343.06
2023-03-04T00:09:30.003Z,101344.75
2023-03-04T00:11:56.416Z,101341.41
2023-03-04T00:14:22.961Z,101346.28
2023-03-04T00:16:49.490Z,101350.88
2023-03-04T00:19:16.012Z,101338.63
2023-03-04T00:21:42.458Z,101343.03
2023-03-04T00:24:08.889Z,101333.91
2023-03-04T00:26:35.395Z,101328.13
2023-03-04T00:29:01.875Z,101339.41
2023-03-04T00:31:28.408Z,101322.63
2023-03-04T00:33:55.002Z,101330.84
2023-03-04T00:36:21.481Z,101327.91
2023-03-04T00:38:47.927Z,101319.50
2023-03-04T00:41:14.406Z,101328.09
2023-03-04T00:43:40.856Z,101319.16
2023-03-04T00:46:07.389Z,101315.13
2023-03-04T00:48:33.860Z,101306.50
2023-03-04T00:51:00.323Z,101297.31
2023-03-04T00:53:26.777Z,101312.25
2023-03-04T00:55:53.240Z,101304.84
2023-03-04T00:58:19.645Z,101300.09
2023-03-04T01:00:46.083Z,101305.31
2023-03-04T01:03:12.547Z,101300.88
2023-03-04T01:05:39.116Z,101295.13
2023-03-04T01:08:05.701Z,101301.50
2023-03-04T01:10:32.237Z,101289.47
2023-03-04T01:12:58.866Z,101299.84
2023-03-04T01:15:25.391Z,101293.94
2023-03-04T01:17:51.862Z,101289.00
2023-03-04T01:20:18.938Z,101281.88
2023-03-04T01:22:45.398Z,101280.34
2023-03-04T01:25:11.848Z,101276.63
2023-03-04T01:27:38.295Z,101282.81
2023-03-04T01:30:05.399Z,101276.53
2023-03-04T01:32:32.082Z,101275.50
2023-03-04T01:34:58.574Z,101276.41
2023-03-04T01:37:25.095Z,101274.84
2023-03-04T01:39:51.509Z,101267.09
2023-03-04T01:42:21.187Z,101270.41
2023-03-04T01:44:49.589Z,101258.97
2023-03-04T01:47:16.387Z,101260.38
2023-03-04T01:49:43.395Z,101254.38
2023-03-04T01:52:13.902Z,101237.25
2023-03-04T01:54:41.406Z,101245.00
2023-03-04T01:57:18.056Z,101230.47
2023-03-04T01:59:45.335Z,101226.63
2023-03-04T02:02:12.721Z,101228.88
2023-03-04T02:04:40.729Z,101231.03
2023-03-04T02:07:07.491Z,101224.28
2023-03-04T02:09:35.736Z,101226.91
2023-03-04T02:12:02.379Z,101221.13
2023-03-04T02:14:29.106Z,101214.19
2023-03-04T02:16:55.547Z,101218.00
2023-03-04T02:19:42.916Z,101212.09
2023-03-04T02:22:09.562Z,101211.72
2023-03-04T02:24:41.883Z,101205.75
2023-03-04T02:27:08.403Z,101208.94
2023-03-04T02:29:35.054Z,101200.97
2023-03-04T02:32:01.709Z,101199.41
2023-03-04T02:34:31.759Z,101194.13
2023-03-04T02:36:58.866Z,101196.34
2023-03-04T02:39:32.805Z,101199.13
2023-03-04T02:42:00.882Z,101190.94
2023-03-04T02:44:34.620Z,101193.97
2023-03-04T02:47:01.875Z,101188.25
2023-03-04T02:49:31.177Z,101192.19
2023-03-04T02:52:09.801Z,101179.69
2023-03-04T02:54:38.231Z,101181.13
2023-03-04T02:57:09.069Z,101172.66
2023-03-04T02:59:37.128Z,101181.56
2023-03-04T03:02:03.837Z,101177.28
2023-03-04T03:04:30.374Z,101181.03
2023-03-04T03:06:56.800Z,101170.72
2023-03-04T03:09:23.259Z,101179.69
2023-03-04T03:11:49.839Z,101174.94
2023-03-04T03:14:16.743Z,101171.78
2023-03-04T03:16:43.422Z,101163.16
2023-03-04T03:19:10.001Z,101163.84
2023-03-04T03:21:36.474Z,101168.56
2023-03-04T03:24:02.947Z,101167.88
2023-03-04T03:26:29.418Z,101161.88
2023-03-04T03:28:55.865Z,101166.66
2023-03-04T03:31:22.356Z,101157.66
2023-03-04T03:33:48.865Z,101162.94
2023-03-04T03:36:15.319Z,101164.66
2023-03-04T03:38:41.790Z,101173.25
2023-03-04T03:41:08.329Z,101164.00
2023-03-04T03:43:34.737Z,101160.53
2023-03-04T03:46:01.198Z,101169.34
2023-03-04T03:48:27.651Z,101167.72
2023-03-04T03:50:54.072Z,101166.00
2023-03-04T03:53:20.583Z,101161.88
2023-03-04T03:55:46.975Z,101158.63
2023-03-04T03:58:14.288Z,101157.03
2023-03-04T04:00:40.717Z,101148.00
2023-03-04T04:03:07.351Z,101156.44
2023-03-04T04:05:33.812Z,101153.78
2023-03-04T04:08:00.223Z,101150.78
2023-03-04T04:10:26.666Z,101141.25
2023-03-04T04:12:53.154Z,101152.03
2023-03-04T04:15:19.667Z,101142.78
2023-03-04T04:17:46.089Z,101137.94
2023-03-04T04:20:12.623Z,101138.16
2023-03-04T04:22:39.108Z,101136.19
2023-03-04T04:25:06.205Z,101132.38
2023-03-04T04:27:32.633Z,101134.91
2023-03-04T04:29:59.050Z,101128.56
2023-03-04T04:32:25.510Z,101137.72
2023-03-04T04:34:51.939Z,101128.28
2023-03-04T04:37:18.369Z,101128.94
2023-03-04T04:39:44.839Z,101138.22
2023-03-04T04:42:11.876Z,101139.19
2023-03-04T04:44:38.902Z,101134.84
2023-03-04T04:47:07.083Z,101129.03
2023-03-04T04:49:33.646Z,101114.78
2023-03-04T04:52:00.497Z,101125.72
2023-03-04T04:54:27.067Z,101124.91
2023-03-04T04:56:53.935Z,101120.69
2023-03-04T04:59:20.522Z,101122.06
2023-03-04T05:01:47.243Z,101108.81
2023-03-04T05:04:13.969Z,101117.22
2023-03-04T05:06:40.604Z,101116.22
2023-03-04T05:09:07.246Z,101120.34
2023-03-04T05:11:34.403Z,101120.72
2023-03-04T05:14:00.900Z,101112.69
2023-03-04T05:16:27.704Z,101118.31
2023-03-04T05:18:54.303Z,101118.34
2023-03-04T05:21:20.778Z,101108.28
2023-03-04T05:23:47.289Z,101108.81
2023-03-04T05:26:17.184Z,101120.03
2023-03-04T05:28:44.313Z,101107.44
2023-03-04T05:31:10.974Z,101104.00
2023-03-04T05:33:38.187Z,101112.94
2023-03-04T05:36:05.980Z,101106.63
2023-03-04T05:38:33.033Z,101100.97
2023-03-04T05:41:02.280Z,101100.69
2023-03-04T05:43:29.063Z,101100.56
2023-03-04T05:45:55.776Z,101105.03
2023-03-04T05:48:22.726Z,101094.44
2023-03-04T05:50:57.251Z,101099.16
2023-03-04T05:53:24.132Z,101098.06
2023-03-04T05:55:50.740Z,101107.66
2023-03-04T05:58:18.163Z,101103.97
2023-03-04T06:00:45.221Z,101107.28
2023-03-04T06:03:20.374Z,101102.78
2023-03-04T06:05:47.030Z,101117.75
2023-03-04T06:08:14.308Z,101110.88
2023-03-04T06:10:41.756Z,101101.06
2023-03-04T06:13:08.628Z,101115.44
2023-03-04T06:15:35.090Z,101111.81
2023-03-04T06:18:01.644Z,101116.78
2023-03-04T06:20:28.163Z,101117.13
2023-03-04T06:22:54.771Z,101112.94
2023-03-04T06:25:21.540Z,101110.84
2023-03-04T06:27:49.796Z,101110.34
2023-03-04T06:30:17.657Z,101112.88
2023-03-04T06:32:44.393Z,101109.66
2023-03-04T06:35:12.624Z,101108.88
2023-03-04T06:37:39.433Z,101107.78
2023-03-04T06:40:08.139Z,101114.59
2023-03-04T06:42:35.613Z,101110.38
2023-03-04T06:45:02.875Z,101116.81
2023-03-04T06:47:29.527Z,101116.53
2023-03-04T06:49:56.145Z,101108.22
2023-03-04T06:52:22.636Z,101121.19
2023-03-04T06:54:49.101Z,101116.22
2023-03-04T06:57:15.665Z,101113.72
2023-03-04T06:59:42.110Z,101114.09
2023-03-04T07:02:12.451Z,101113.53
2023-03-04T07:04:39.659Z,101112.06
2023-03-04T07:07:16.771Z,101122.72
2023-03-04T07:09:43.214Z,101114.19
2023-03-04T07:12:09.647Z,101126.78
2023-03-04T07:14:36.058Z,101118.13
2023-03-04T07:17:02.568Z,101116.22
2023-03-04T07:19:28.969Z,101108.47
2023-03-04T07:21:55.414Z,101119.75
2023-03-04T07:24:21.825Z,101107.59
2023-03-04T07:26:48.235Z,101120.03
2023-03-04T07:29:14.750Z,101114.31
2023-03-04T07:31:41.264Z,101118.31
2023-03-04T07:34:11.516Z,101122.94
2023-03-04T07:36:38.129Z,101113.28
2023-03-04T07:39:05.673Z,101110.38
2023-03-04T07:41:32.453Z,101109.97
2023-03-04T07:43:59.107Z,101112.72
2023-03-04T07:46:25.841Z,101105.38
2023-03-04T07:48:52.995Z,101112.03
2023-03-04T07:51:21.717Z,101109.09
2023-03-04T07:53:51.145Z,101115.06
2023-03-04T07:56:23.097Z,101102.19
2023-03-04T07:58:52.353Z,101102.75
2023-03-04T08:01:30.834Z,101113.59
2023-03-04T08:03:58.302Z,101098.84
2023-03-04T08:06:26.804Z,101100.22
2023-03-04T08:09:02.215Z,101101.88
2023-03-04T08:11:30.311Z,101105.56
2023-03-04T08:13:58.741Z,101106.97
2023-03-04T08:16:26.463Z,101101.88
2023-03-04T08:18:56.967Z,101101.81
2023-03-04T08:21:25.136Z,101107.03
2023-03-04T08:23:52.227Z,101104.63
2023-03-04T08:26:23.731Z,101107.91
2023-03-04T08:28:50.844Z,101108.47
2023-03-04T08:31:18.465Z,101102.03
2023-03-04T08:33:45.673Z,101107.78
2023-03-04T08:36:13.807Z,101116.97
2023-03-04T08:38:40.256Z,101113.78
2023-03-04T08:41:06.968Z,101100.78
2023-03-04T08:43:34.680Z,101111.56
2023-03-04T08:46:01.252Z,101106.34
2023-03-04T08:48:27.809Z,101112.19
2023-03-04T08:50:54.662Z,101104.38
2023-03-04T08:53:21.988Z,101093.78
2023-03-04T08:55:48.611Z,101102.06
2023-03-04T08:58:15.407Z,101097.69
2023-03-04T09:00:48.148Z,101098.28
2023-03-04T09:03:15.799Z,101102.16
2023-03-04T09:05:42.292Z,101088.97
2023-03-04T09:08:08.721Z,101103.09
2023-03-04T09:10:35.186Z,101104.06
2023-03-04T09:13:01.886Z,101098.44
2023-03-04T09:15:28.712Z,101097.63
2023-03-04T09:17:55.360Z,101109.13
2023-03-04T09:20:23.157Z,101110.88
2023-03-04T09:22:50.157Z,101111.94
2023-03-04T09:25:16.645Z,101116.66
2023-03-04T09:27:43.426Z,101114.00
2023-03-04T09:30:11.058Z,101117.59
2023-03-04T09:32:37.700Z,101120.88
2023-03-04T09:35:04.746Z,101126.44
2023-03-04T09:37:31.276Z,101114.06
2023-03-04T09:39:57.735Z,101121.84
2023-03-04T09:42:33.501Z,101118.84
2023-03-04T09:45:00.543Z,101122.00
2023-03-04T09:47:27.323Z,101115.34
2023-03-04T09:50:01.100Z,101114.28
2023-03-04T09:52:27.444Z,101116.38
2023-03-04T09:55:25.345Z,101111.66
2023-03-04T09:58:14.403Z,101100.84
2023-03-04T10:00:51.909Z,101105.66
2023-03-04T10:03:24.305Z,101098.56
2023-03-04T10:05:57.923Z,101107.53
2023-03-04T10:08:49.295Z,101098.66
2023-03-04T10:11:24.738Z,101096.41
2023-03-04T10:14:10.902Z,101104.41
2023-03-04T10:16:56.208Z,101098.91
2023-03-04T10:19:26.509Z,101095.28
2023-03-04T10:21:52.985Z,101099.81
2023-03-04T10:24:22.638Z,101097.13
2023-03-04T10:26:54.125Z,101101.44
2023-03-04T10:29:22.924Z,101094.03
2023-03-04T10:31:49.725Z,101093.91
2023-03-04T10:34:17.752Z,101100.88
2023-03-04T10:36:53.438Z,101093.91
2023-03-04T10:39:26.240Z,101096.81
2023-03-04T10:41:57.507Z,101097.97
2023-03-04T10:44:25.131Z,101092.34
2023-03-04T10:46:54.728Z,101098.38
2023-03-04T10:49:21.750Z,101097.28
2023-03-04T10:52:03.165Z,101101.44
2023-03-04T10:54:48.590Z,101088.72
2023-03-04T10:57:18.855Z,101097.75
2023-03-04T10:59:51.536Z,101096.72
2023-03-04T11:02:29.334Z,101099.38
2023-03-04T11:05:07.969Z,101092.06
2023-03-04T11:07:54.493Z,101086.03
2023-03-04T11:10:36.104Z,101077.22
2023-03-04T11:13:02.483Z,101079.75
2023-03-04T11:15:31.268Z,101073.50
2023-03-04T11:18:03.009Z,101066.88
2023-03-04T11:20:40.442Z,101070.66
2023-03-04T11:23:12.699Z,101070.72
2023-03-04T11:25:43.975Z,101068.16
2023-03-04T11:28:27.532Z,101075.09
2023-03-04T11:31:01.112Z,101063.28
2023-03-04T11:33:42.253Z,101072.69
2023-03-04T11:36:25.385Z,101072.81
2023-03-04T11:38:52.009Z,101073.38
2023-03-04T11:41:31.989Z,101087.19
2023-03-04T11:44:00.317Z,101074.16
2023-03-04T11:46:44.957Z,101073.03
2023-03-04T11:49:30.030Z,101073.38
2023-03-04T11:52:26.537Z,101067.72
2023-03-04T11:54:58.893Z,101075.72
2023-03-04T11:57:47.949Z,101053.94
2023-03-04T12:00:29.675Z,101052.44
2023-03-04T12:03:01.801Z,101043.50
2023-03-04T12:05:36.366Z,101060.19
2023-03-04T12:08:12.732Z,101057.72
2023-03-04T12:10:59.443Z,101054.44
2023-03-04T12:13:48.134Z,101054.69
2023-03-04T12:16:52.312Z,101042.66
2023-03-04T12:19:24.684Z,101027.34
2023-03-04T12:22:08.074Z,101032.66
2023-03-04T12:24:55.490Z,101019.19
2023-03-04T12:27:38.012Z,101017.47
2023-03-04T12:30:25.770Z,101031.06
2023-03-04T12:33:04.490Z,101031.13
2023-03-04T12:35:36.712Z,101018.59
2023-03-04T12:38:27.411Z,101016.75
2023-03-04T12:41:21.269Z,101015.25
2023-03-04T12:44:08.735Z,101020.06
2023-03-04T12:47:16.392Z,101009.56
2023-03-04T12:50:21.289Z,101004.16
2023-03-04T12:53:10.868Z,101003.75
2023-03-04T12:55:42.370Z,101006.88
2023-03-04T12:58:21.014Z,101011.59
2023-03-04T13:01:32.472Z,101028.31
2023-03-04T13:04:23.794Z,101018.09
2023-03-04T13:07:08.611Z,101019.63
2023-03-04T13:09:48.568Z,101011.56
2023-03-04T13:12:22.228Z,101013.94
2023-03-04T13:15:07.354Z,101016.84
2023-03-04T13:17:49.303Z,101012.53
2023-03-04T13:20:39.712Z,101006.28
2023-03-04T13:23:08.860Z,101014.88
2023-03-04T13:26:07.766Z,101005.97
2023-03-04T13:28:37.684Z,101011.88
2023-03-04T13:31:10.079Z,101008.59
2023-03-04T13:33:36.452Z,101005.22
2023-03-04T13:36:06.179Z,101014.00
2023-03-04T13:38:36.363Z,101006.81
2023-03-04T13:41:20.906Z,101004.38
2023-03-04T13:43:54.286Z,101003.41
2023-03-04T13:46:20.884Z,100999.31
2023-03-04T13:48:50.557Z,101000.63
2023-03-04T13:51:30.336Z,101001.59
2023-03-04T13:54:00.187Z,100994.38
2023-03-04T13:56:37.454Z,100992.66
2023-03-04T13:59:06.922Z,101017.38
2023-03-04T14:01:40.840Z,101013.56
2023-03-04T14:04:29.134Z,101012.53
2023-03-04T14:06:58.421Z,101024.56
2023-03-04T14:09:31.032Z,101026.97
2023-03-04T14:12:02.489Z,101013.31
2023-03-04T14:14:34.402Z,101014.94
2023-03-04T14:17:05.678Z,101009.78
2023-03-04T14:19:43.021Z,101005.47
2023-03-04T14:22:32.048Z,101016.91
2023-03-04T14:25:23.628Z,101007.63
2023-03-04T14:27:50.866Z,101006.19
2023-03-04T14:30:40.932Z,101006.69
2023-03-04T14:33:14.087Z,100998.47
2023-03-04T14:35:50.159Z,101009.72
2023-03-04T14:38:38.017Z,101011.22
2023-03-04T14:41:10.193Z,101017.16
2023-03-04T14:43:46.986Z,101019.28
2023-03-04T14:46:15.965Z,101004.28
2023-03-04T14:48:49.140Z,101004.00
2023-03-04T14:51:46.898Z,101015.19
2023-03-04T14:54:26.658Z,101003.72
2023-03-04T14:56:53.045Z,100999.78
2023-03-04T14:59:32.090Z,101005.00
2023-03-04T15:02:31.063Z,100999.91
2023-03-04T15:05:00.104Z,100999.28
2023-03-04T15:07:32.612Z,101002.66
2023-03-04T15:10:00.224Z,101002.09
2023-03-04T15:12:30.412Z,100989.88
2023-03-04T15:15:02.168Z,100992.97
2023-03-04T15:17:42.359Z,100995.78
2023-03-04T15:20:08.894Z,100988.34
2023-03-04T15:22:56.434Z,100990.19
2023-03-04T15:25:23.764Z,100984.47
2023-03-04T15:27:50.948Z,100987.06
2023-03-04T15:30:21.433Z,100992.25
2023-03-04T15:32:48.237Z,100985.03
2023-03-04T15:35:16.540Z,100979.63
2023-03-04T15:37:44.223Z,100977.56
2023-03-04T15:40:42.946Z,100974.81
2023-03-04T15:43:16.259Z,100980.44
2023-03-04T15:45:43.575Z,100983.16
2023-03-04T15:48:12.724Z,100986.53
2023-03-04T15:50:45.914Z,100981.66
2023-03-04T15:53:19.635Z,100990.38
2023-03-04T15:55:46.826Z,100980.50
2023-03-04T15:58:14.789Z,100993.50
2023-03-04T16:00:41.230Z,100979.69
2023-03-04T16:03:14.039Z,100981.75
2023-03-04T16:05:41.019Z,100995.56
2023-03-04T16:08:13.074Z,100990.09
2023-03-04T16:10:39.649Z,100994.00
2023-03-04T16:13:06.076Z,100997.06
2023-03-04T16:15:32.566Z,101005.13
2023-03-04T16:17:59.648Z,100989.38
2023-03-04T16:20:29.079Z,100988.63
2023-03-04T16:22:58.549Z,100987.09
2023-03-04T16:25:25.735Z,100989.91
2023-03-04T16:27:55.982Z,100988.56
2023-03-04T16:30:27.166Z,100984.53
2023-03-04T16:32:54.202Z,100990.13
2023-03-04T16:35:21.493Z,100986.50
2023-03-04T16:37:48.108Z,100980.06
2023-03-04T16:40:16.853Z,100976.97
2023-03-04T16:42:43.402Z,100979.41
2023-03-04T16:45:18.674Z,100989.75
2023-03-04T16:47:45.118Z,100989.44
2023-03-04T16:50:26.989Z,101000.66
2023-03-04T16:52:54.401Z,100998.47
2023-03-04T16:55:26.380Z,101000.47
2023-03-04T16:57:54.159Z,100994.09
2023-03-04T17:00:22.521Z,100988.56
2023-03-04T17:03:00.827Z,100983.34
2023-03-04T17:05:30.414Z,100990.69
2023-03-04T17:07:57.183Z,100983.31
2023-03-04T17:10:24.919Z,100993.63
2023-03-04T17:12:51.963Z,100998.38
2023-03-04T17:15:18.550Z,100985.50
2023-03-04T17:17:45.032Z,100993.97
2023-03-04T17:20:14.632Z,101001.59
2023-03-04T17:22:41.461Z,100990.72
2023-03-04T17:25:08.899Z,100989.91
2023-03-04T17:27:35.817Z,100996.41
2023-03-04T17:30:03.349Z,100993.22
2023-03-04T17:32:32.438Z,100992.91
2023-03-04T17:34:59.629Z,100995.78
2023-03-04T17:37:26.980Z,100994.19
2023-03-04T17:39:53.453Z,101006.19
2023-03-04T17:42:20.499Z,101009.19
2023-03-04T17:44:47.024Z,101007.31
2023-03-04T17:47:14.283Z,101002.94
2023-03-04T17:49:40.788Z,101013.19
2023-03-04T17:52:07.386Z,101004.75
2023-03-04T17:54:34.722Z,101015.28
2023-03-04T17:57:01.134Z,101013.25
2023-03-04T17:59:27.601Z,101007.91
2023-03-04T18:01:54.425Z,101005.66
2023-03-04T18:04:21.631Z,101011.63
2023-03-04T18:06:48.093Z,101018.41
2023-03-04T18:09:14.652Z,101010.31
2023-03-04T18:11:42.218Z,101006.94
2023-03-04T18:14:09.565Z,101004.28
2023-03-04T18:16:36.003Z,101009.03
2023-03-04T18:19:02.887Z,101011.25
2023-03-04T18:21:30.413Z,101007.28
2023-03-04T18:23:57.791Z,100997.34
2023-03-04T18:26:25.245Z,101001.00
2023-03-04T18:28:53.369Z,101009.41
2023-03-04T18:31:21.482Z,101008.06
2023-03-04T18:33:48.167Z,101009.84
2023-03-04T18:36:15.131Z,101009.69
2023-03-04T18:38:41.932Z,101004.13
2023-03-04T18:41:11.488Z,101003.41
2023-03-04T18:43:38.244Z,101001.06
2023-03-04T18:46:10.790Z,101009.25
2023-03-04T18:48:45.977Z,101005.63
2023-03-04T18:51:12.769Z,101005.53
2023-03-04T18:53:39.231Z,100999.75
2023-03-04T18:56:31.405Z,101005.44
2023-03-04T18:58:58.548Z,101010.19
2023-03-04T19:01:26.006Z,101011.13
2023-03-04T19:03:54.320Z,101005.44
2023-03-04T19:06:20.914Z,101011.13
2023-03-04T19:08:47.394Z,101008.63
2023-03-04T19:11:14.648Z,101015.75
2023-03-04T19:13:41.056Z,101012.41
2023-03-04T19:16:07.765Z,101008.13
2023-03-04T19:18:34.250Z,101008.78
2023-03-04T19:21:00.835Z,101005.53
2023-03-04T19:23:27.461Z,101012.28
2023-03-04T19:25:53.899Z,101010.44
2023-03-04T19:28:20.314Z,101007.19
2023-03-04T19:30:46.780Z,101006.19
2023-03-04T19:33:13.232Z,101001.91
2023-03-04T19:36:16.734Z,101008.00
2023-03-04T19:38:43.804Z,101009.72
2023-03-04T19:41:16.307Z,101011.31
2023-03-04T19:43:42.977Z,100999.44
2023-03-04T19:46:37.370Z,101002.50
2023-03-04T19:49:22.143Z,100999.59
2023-03-04T19:51:48.627Z,101009.66
2023-03-04T19:54:15.095Z,101008.56
2023-03-04T19:56:41.613Z,101009.50
2023-03-04T19:59:36.056Z,101016.03
2023-03-04T20:02:03.001Z,101014.72
2023-03-04T20:04:29.491Z,101012.09
2023-03-04T20:06:55.934Z,101008.31
2023-03-04T20:09:22.727Z,101021.34
2023-03-04T20:11:59.106Z,101009.31
2023-03-04T20:14:36.576Z,101008.19
2023-03-04T20:17:06.769Z,101014.50
2023-03-04T20:19:34.861Z,101017.81
2023-03-04T20:22:02.438Z,101018.72
2023-03-04T20:24:34.701Z,101017.53
2023-03-04T20:27:01.265Z,101018.97
2023-03-04T20:29:28.860Z,101022.34
2023-03-04T20:31:55.524Z,101025.09
2023-03-04T20:34:22.700Z,101023.38
2023-03-04T20:36:49.105Z,101034.94
2023-03-04T20:39:28.104Z,101029.50
2023-03-04T20:41:57.813Z,101034.84
2023-03-04T20:44:25.198Z,101031.06
2023-03-04T20:46:52.047Z,101031.03
2023-03-04T20:49:24.722Z,101032.22
2023-03-04T20:52:06.432Z,101037.97
2023-03-04T20:54:34.505Z,101030.59
2023-03-04T20:57:01.222Z,101043.44
2023-03-04T20:59:27.702Z,101039.41
2023-03-04T21:01:54.631Z,101038.19
2023-03-04T21:04:21.288Z,101031.19
2023-03-04T21:06:48.345Z,101044.16
2023-03-04T21:09:17.387Z,101033.06
2023-03-04T21:11:44.332Z,101046.34
2023-03-04T21:14:16.570Z,101032.78
2023-03-04T21:16:43.355Z,101044.38
2023-03-04T21:19:15.596Z,101036.91
2023-03-04T21:21:42.376Z,101029.31
2023-03-04T21:24:13.781Z,101019.97
2023-03-04T21:26:40.314Z,101025.03
2023-03-04T21:29:06.889Z,101017.41
2023-03-04T21:31:36.766Z,101023.94
2023-03-04T21:34:03.242Z,101019.50
2023-03-04T21:36:29.667Z,101022.38
2023-03-04T21:38:56.181Z,101022.59
2023-03-04T21:41:24.099Z,101017.03
2023-03-04T21:43:51.214Z,101016.75
2023-03-04T21:46:19.018Z,101016.59
2023-03-04T21:48:47.574Z,101013.47
2023-03-04T21:51:15.472Z,101017.94
2023-03-04T21:53:43.373Z,101019.56
2023-03-04T21:56:11.828Z,101014.28
2023-03-04T21:58:42.030Z,101015.63
2023-03-04T22:01:10.304Z,101010.19
2023-03-04T22:03:36.806Z,101013.38
2023-03-04T22:06:08.577Z,101011.41
2023-03-04T22:08:35.795Z,101011.34
2023-03-04T22:11:04.419Z,100994.06
2023-03-04T22:13:30.919Z,100995.56
2023-03-04T22:15:58.188Z,100991.34
2023-03-04T22:18:24.878Z,100997.69
2023-03-04T22:20:53.459Z,100991.03
2023-03-04T22:23:23.296Z,100996.69
2023-03-04T22:25:49.773Z,100984.94
2023-03-04T22:28:16.164Z,100995.50
2023-03-04T22:30:42.578Z,100992.22
2023-03-04T22:33:14.853Z,100989.47
2023-03-04T22:35:41.450Z,100985.09
2023-03-04T22:38:36.099Z,100981.88
2023-03-04T22:41:02.694Z,100985.91
2023-03-04T22:43:29.949Z,100990.94
2023-03-04T22:45:59.966Z,100986.88
2023-03-04T22:48:26.924Z,100975.88
2023-03-04T22:50:53.362Z,100976.91
2023-03-04T22:53:19.824Z,100984.50
2023-03-04T22:55:46.287Z,100977.81
2023-03-04T22:58:35.968Z,100984.78
2023-03-04T23:01:30.384Z,100986.59
2023-03-04T23:03:56.844Z,100982.72
2023-03-04T23:06:25.682Z,100967.56
2023-03-04T23:08:52.612Z,100973.00
2023-03-04T23:11:22.909Z,100964.78
2023-03-04T23:13:50.047Z,100960.03
2023-03-04T23:16:37.192Z,100964.44
2023-03-04T23:19:05.457Z,100961.13
2023-03-04T23:21:35.075Z,100957.13
2023-03-04T23:24:02.551Z,100970.00
2023-03-04T23:26:32.343Z,100971.00
2023-03-04T23:29:01.475Z,100969.19
2023-03-04T23:31:29.639Z,100969.66
2023-03-04T23:34:06.888Z,100976.72
2023-03-04T23:36:37.091Z,100969.47
2023-03-04T23:39:05.377Z,100970.03
2023-03-04T23:41:32.811Z,100972.66
2023-03-04T23:43:59.904Z,100962.44
2023-03-04T23:46:27.482Z,100964.28
2023-03-04T23:48:54.887Z,100959.09
2023-03-04T23:51:24.507Z,100956.88
2023-03-04T23:53:51.797Z,100958.72
2023-03-04T23:56:23.749Z,100963.88
2023-03-04T23:58:50.668Z,100952.16
